Time,TemperatureF,DewpointF,PressureIn,WindDirection,WindDirectionDegrees,WindSpeedMPH,WindSpeedGustMPH,Humidity,HourlyPrecipIn,Conditions,Clouds,dailyrainin,SoftwareType,DateUTC
2013-05-23 00:01:00,59.4,58.5,29.69,South,180,0.4,5.8,97,0.00,RA,,0.00,WeatherDisplay:10.37,2013-05-23 04:01:00,
2013-05-23 00:02:00,59.4,58.5,29.69,NW,315,1.7,2.2,97,0.00,RA,,0.00,WeatherDisplay:10.37,2013-05-23 04:02:00,
2013-05-23 00:07:00,59.4,58.5,29.69,WNW,292,1.4,2.7,97,0.00,RA,,0.00,WeatherDisplay:10.37,2013-05-23 04:07:00,
2013-05-23 00:12:00,59.4,58.5,29.69,North,360,1.3,2.3,97,0.00,CLR,,0.00,WeatherDisplay:10.37,2013-05-23 04:12:00,
2013-05-23 00:17:00,59.4,58.5,29.69,West,270,2.9,3.5,97,0.00,CLR,,0.00,WeatherDisplay:10.37,2013-05-23 04:17:00,
2013-05-23 00:22:00,59.4,58.5,29.69,West,270,0.3,1.2,97,0.00,CLR,,0.00,WeatherDisplay:10.37,2013-05-23 04:22:00,
2013-05-23 00:27:00,59.4,58.5,29.69,South,180,0.0,0.0,97,0.00,CLR,,0.00,WeatherDisplay:10.37,2013-05-23 04:27:00,
2013-05-23 00:32:00,59.4,58.5,29.69,SW,225,0.0,0.0,97,0.00,CLR,,0.00,WeatherDisplay:10.37,2013-05-23 04:32:00,
2013-05-23 00:37:00,59.4,58.5,29.69,WSW,248,2.0,2.7,97,0.00,CLR,,0.00,WeatherDisplay:10.37,2013-05-23 04:37:00,
2013-05-23 00:42:00,59.4,58.5,29.69,South,180,0.0,1.2,97,0.00,CLR,,0.00,WeatherDisplay:10.37,2013-05-23 04:42:00,
2013-05-23 00:48:00,59.4,58.5,29.69,SSW,202,0.0,0.0,97,0.00,CLR,,0.00,WeatherDisplay:10.37,2013-05-23 04:48:00,
2013-05-23 00:53:00,59.4,58.5,29.70,West,270,3.1,4.7,97,0.00,CLR,,0.00,WeatherDisplay:10.37,2013-05-23 04:53:00,
2013-05-23 00:58:00,59.4,58.5,29.70,ESE,112,0.0,1.2,97,0.00,CLR,,0.00,WeatherDisplay:10.37,2013-05-23 04:58:00,
2013-05-23 01:03:00,59.4,58.5,29.70,SE,135,0.0,1.2,97,0.00,CLR,,0.00,WeatherDisplay:10.37,2013-05-23 05:03:00,
2013-05-23 01:08:00,59.4,58.5,29.70,SE,135,0.0,0.0,97,0.00,CLR,,0.00,WeatherDisplay:10.37,2013-05-23 05:08:00,
2013-05-23 01:13:00,59.4,58.5,29.70,WSW,248,0.4,2.3,97,0.00,CLR,,0.00,WeatherDisplay:10.37,2013-05-23 05:13:00,
2013-05-23 01:18:00,59.4,58.5,29.70,NNW,338,0.6,1.7,97,0.00,CLR,,0.00,WeatherDisplay:10.37,2013-05-23 05:18:00,
2013-05-23 01:23:00,59.4,58.5,29.70,NNW,338,1.9,2.3,97,0.00,CLR,,0.00,WeatherDisplay:10.37,2013-05-23 05:23:00,
2013-05-23 01:28:00,59.4,58.5,29.70,NNW,338,0.0,0.0,97,0.00,CLR,,0.00,WeatherDisplay:10.37,2013-05-23 05:28:00,
2013-05-23 01:33:00,59.4,58.5,29.70,SSE,158,1.2,1.7,97,0.00,CLR,,0.00,WeatherDisplay:10.37,2013-05-23 05:33:00,
2013-05-23 01:39:00,59.4,58.5,29.69,SSW,202,0.7,1.2,97,0.00,CLR,,0.00,WeatherDisplay:10.37,2013-05-23 05:39:00,
2013-05-23 01:44:00,59.4,58.5,29.69,WNW,292,2.8,2.8,97,0.00,CLR,,0.00,WeatherDisplay:10.37,2013-05-23 05:44:00,
2013-05-23 01:49:00,59.4,58.5,29.70,WSW,248,1.1,4.6,97,0.00,CLR,,0.00,WeatherDisplay:10.37,2013-05-23 05:49:00,
2013-05-23 01:54:00,59.4,58.5,29.70,West,270,2.6,3.5,97,0.00,CLR,,0.00,WeatherDisplay:10.37,2013-05-23 05:54:00,
2013-05-23 01:59:00,59.4,58.5,29.70,NNW,338,1.4,2.3,97,0.00,CLR,,0.00,WeatherDisplay:10.37,2013-05-23 05:59:00,
2013-05-23 02:04:00,59.4,58.5,29.70,NNW,338,0.6,2.2,97,0.00,CLR,,0.00,WeatherDisplay:10.37,2013-05-23 06:04:00,
2013-05-23 02:09:00,59.4,58.5,29.70,SSW,202,1.0,2.3,97,0.00,CLR,,0.00,WeatherDisplay:10.37,2013-05-23 06:09:00,
2013-05-23 02:14:00,59.4,58.5,29.70,West,270,0.0,0.0,97,0.00,CLR,,0.00,WeatherDisplay:10.37,2013-05-23 06:14:00,
2013-05-23 02:19:00,59.4,58.5,29.70,WSW,248,2.8,4.6,97,0.00,CLR,,0.00,WeatherDisplay:10.37,2013-05-23 06:19:00,
2013-05-23 02:24:00,59.4,58.5,29.70,SSW,202,1.8,2.7,97,0.00,CLR,,0.00,WeatherDisplay:10.37,2013-05-23 06:24:00,
2013-05-23 02:30:00,59.4,58.5,29.70,NNW,338,2.0,2.7,97,0.00,CLR,,0.00,WeatherDisplay:10.37,2013-05-23 06:30:00,
2013-05-23 02:35:00,59.4,58.5,29.70,SSW,202,1.3,5.8,97,0.00,CLR,,0.00,WeatherDisplay:10.37,2013-05-23 06:35:00,
2013-05-23 02:40:00,59.4,58.5,29.70,SW,221,0.0,6.0,97,0.00,CLR,,0.00,WeatherDisplay:10.37,2013-05-23 06:40:00,
2013-05-23 02:45:00,59.4,58.5,29.70,WNW,285,1.0,5.0,97,0.00,CLR,,0.00,WeatherDisplay:10.37,2013-05-23 06:45:00,
2013-05-23 02:50:00,59.2,58.3,29.69,NW,305,1.0,6.0,97,0.00,CLR,,0.00,WeatherDisplay:10.37,2013-05-23 06:50:00,
2013-05-23 02:55:00,59.2,58.3,29.69,WSW,257,1.0,7.0,97,0.00,CLR,,0.00,WeatherDisplay:10.37,2013-05-23 06:55:00,
2013-05-23 03:00:00,59.2,58.3,29.69,WSW,250,0.0,3.0,97,0.00,CLR,,0.00,WeatherDisplay:10.37,2013-05-23 07:00:00,
2013-05-23 03:05:00,59.2,58.3,29.69,WNW,286,1.0,4.0,97,0.00,CLR,,0.00,WeatherDisplay:10.37,2013-05-23 07:05:00,
2013-05-23 03:10:00,59.2,58.3,29.69,WNW,287,1.0,5.0,97,0.00,CLR,,0.00,WeatherDisplay:10.37,2013-05-23 07:10:00,
2013-05-23 03:15:00,59.2,58.3,29.69,WSW,257,2.0,6.0,97,0.00,CLR,,0.00,WeatherDisplay:10.37,2013-05-23 07:15:00,
2013-05-23 03:20:00,59.2,58.3,29.69,SW,214,0.0,4.0,97,0.00,CLR,,0.00,WeatherDisplay:10.37,2013-05-23 07:20:00,
2013-05-23 03:25:00,59.2,58.3,29.70,West,274,2.0,6.0,97,0.00,CLR,,0.00,WeatherDisplay:10.37,2013-05-23 07:25:00,
2013-05-23 03:30:00,58.8,58.0,29.70,WSW,254,3.0,8.0,97,0.00,CLR,,0.00,WeatherDisplay:10.37,2013-05-23 07:30:00,
2013-05-23 03:35:00,58.7,57.8,29.70,WSW,254,5.0,6.0,97,0.00,CLR,,0.00,WeatherDisplay:10.37,2013-05-23 07:35:00,
2013-05-23 03:40:00,58.6,57.7,29.69,WNW,282,3.0,6.0,97,0.00,CLR,,0.00,WeatherDisplay:10.37,2013-05-23 07:40:00,
2013-05-23 03:45:00,58.5,57.7,29.69,West,280,2.0,5.0,97,0.00,CLR,,0.00,WeatherDisplay:10.37,2013-05-23 07:45:00,
2013-05-23 03:50:00,58.3,57.5,29.70,SW,232,3.0,7.0,97,0.00,CLR,,0.00,WeatherDisplay:10.37,2013-05-23 07:50:00,
2013-05-23 03:55:00,58.1,57.3,29.70,West,270,2.3,3.5,97,0.00,CLR,,0.00,WeatherDisplay:10.37,2013-05-23 07:55:00,
2013-05-23 04:00:00,57.9,57.1,29.70,SW,225,2.4,5.8,97,0.00,CLR,,0.00,WeatherDisplay:10.37,2013-05-23 08:00:00,
2013-05-23 04:05:00,57.9,57.1,29.70,NNW,338,0.4,3.2,97,0.00,CLR,,0.00,WeatherDisplay:10.37,2013-05-23 08:05:00,
2013-05-23 04:10:00,57.7,56.9,29.70,NNW,338,2.3,3.5,97,0.00,CLR,,0.00,WeatherDisplay:10.37,2013-05-23 08:10:00,
2013-05-23 04:15:00,57.7,56.9,29.70,NNW,338,1.2,6.9,97,0.00,CLR,,0.00,WeatherDisplay:10.37,2013-05-23 08:15:00,
2013-05-23 04:20:00,57.7,56.9,29.70,ESE,112,0.3,1.2,97,0.00,CLR,,0.00,WeatherDisplay:10.37,2013-05-23 08:20:00,
2013-05-23 04:25:00,57.7,56.9,29.70,WSW,248,3.3,4.6,97,0.00,CLR,,0.00,WeatherDisplay:10.37,2013-05-23 08:25:00,
2013-05-23 04:30:00,57.6,56.8,29.70,South,180,3.3,5.8,97,0.00,CLR,,0.00,WeatherDisplay:10.37,2013-05-23 08:30:00,
2013-05-23 04:36:00,57.6,56.8,29.70,SW,225,1.6,3.2,97,0.00,CLR,,0.00,WeatherDisplay:10.37,2013-05-23 08:36:00,
2013-05-23 04:41:00,57.6,56.8,29.70,NNW,338,0.1,2.2,97,0.00,CLR,,0.00,WeatherDisplay:10.37,2013-05-23 08:41:00,
2013-05-23 04:46:00,57.4,56.6,29.70,SSE,158,0.0,1.2,97,0.00,CLR,,0.00,WeatherDisplay:10.37,2013-05-23 08:46:00,
2013-05-23 04:51:00,57.4,56.6,29.70,North,360,0.0,1.2,97,0.00,CLR,,0.00,WeatherDisplay:10.37,2013-05-23 08:51:00,
2013-05-23 04:56:00,57.4,56.6,29.70,WSW,248,3.2,5.8,97,0.00,CLR,,0.00,WeatherDisplay:10.37,2013-05-23 08:56:00,
2013-05-23 05:01:00,57.4,56.6,29.70,North,360,0.0,0.0,97,0.00,CLR,,0.00,WeatherDisplay:10.37,2013-05-23 09:01:00,
2013-05-23 05:06:00,57.4,56.6,29.70,North,360,0.9,2.7,97,0.00,CLR,,0.00,WeatherDisplay:10.37,2013-05-23 09:06:00,
2013-05-23 05:11:00,57.2,56.4,29.70,SSW,202,2.4,3.2,97,0.00,CLR,,0.00,WeatherDisplay:10.37,2013-05-23 09:11:00,
2013-05-23 05:16:00,57.2,56.4,29.70,SSE,158,0.8,4.6,97,0.00,CLR,,0.00,WeatherDisplay:10.37,2013-05-23 09:16:00,
2013-05-23 05:21:00,57.0,56.2,29.70,East,90,1.1,3.5,97,0.00,CLR,,0.00,WeatherDisplay:10.37,2013-05-23 09:21:00,
2013-05-23 05:27:00,56.7,55.9,29.71,NE,45,2.0,5.8,97,0.00,CLR,,0.00,WeatherDisplay:10.37,2013-05-23 09:27:00,
2013-05-23 05:32:00,56.7,55.9,29.71,NNW,338,2.6,3.2,97,0.00,CLR,,0.00,WeatherDisplay:10.37,2013-05-23 09:32:00,
2013-05-23 05:37:00,56.7,55.9,29.71,West,270,3.2,3.7,97,0.00,CLR,,0.00,WeatherDisplay:10.37,2013-05-23 09:37:00,
2013-05-23 05:42:00,56.7,55.9,29.71,SSE,158,0.0,1.2,97,0.00,CLR,,0.00,WeatherDisplay:10.37,2013-05-23 09:42:00,
2013-05-23 05:47:00,56.5,55.7,29.71,West,270,2.4,3.7,97,0.00,CLR,,0.00,WeatherDisplay:10.37,2013-05-23 09:47:00,
2013-05-23 05:52:00,56.3,55.5,29.71,WSW,248,4.1,5.8,97,0.00,CLR,,0.00,WeatherDisplay:10.37,2013-05-23 09:52:00,
2013-05-23 05:57:00,56.3,55.5,29.71,SW,225,1.1,1.2,97,0.00,CLR,,0.00,WeatherDisplay:10.37,2013-05-23 09:57:00,
2013-05-23 06:02:00,56.3,55.5,29.72,SW,225,1.0,2.3,97,0.00,CLR,,0.00,WeatherDisplay:10.37,2013-05-23 10:02:00,
2013-05-23 06:07:00,56.3,55.5,29.72,South,180,0.4,3.5,97,0.00,CLR,,0.00,WeatherDisplay:10.37,2013-05-23 10:07:00,
2013-05-23 06:12:00,56.1,55.3,29.72,West,270,3.1,3.5,97,0.00,CLR,,0.00,WeatherDisplay:10.37,2013-05-23 10:12:00,
2013-05-23 06:18:00,56.1,55.3,29.72,WNW,292,2.3,3.2,97,0.00,CLR,,0.00,WeatherDisplay:10.37,2013-05-23 10:18:00,
2013-05-23 06:23:00,55.9,55.1,29.72,NNW,338,0.8,2.3,97,0.00,CLR,,0.00,WeatherDisplay:10.37,2013-05-23 10:23:00,
2013-05-23 06:28:00,55.9,55.1,29.72,SW,225,2.3,3.7,97,0.00,CLR,,0.00,WeatherDisplay:10.37,2013-05-23 10:28:00,
2013-05-23 06:33:00,55.9,55.1,29.72,WSW,248,3.3,4.6,97,0.00,CLR,,0.00,WeatherDisplay:10.37,2013-05-23 10:33:00,
2013-05-23 06:38:00,55.9,55.1,29.73,West,270,1.9,2.3,97,0.00,CLR,,0.00,WeatherDisplay:10.37,2013-05-23 10:38:00,
2013-05-23 06:43:00,55.8,55.0,29.73,WNW,292,2.0,2.3,97,0.00,CLR,,0.00,WeatherDisplay:10.37,2013-05-23 10:43:00,
2013-05-23 06:48:00,55.8,55.0,29.73,SW,225,0.9,2.3,97,0.00,CLR,,0.00,WeatherDisplay:10.37,2013-05-23 10:48:00,
2013-05-23 06:53:00,55.6,54.8,29.73,West,270,3.2,4.7,97,0.00,CLR,,0.00,WeatherDisplay:10.37,2013-05-23 10:53:00,
2013-05-23 06:58:00,55.6,54.8,29.73,NNW,338,2.1,3.7,97,0.00,CLR,,0.00,WeatherDisplay:10.37,2013-05-23 10:58:00,
2013-05-23 07:03:00,55.6,54.8,29.73,West,270,0.8,3.2,97,0.00,CLR,,0.00,WeatherDisplay:10.37,2013-05-23 11:03:00,
2013-05-23 07:09:00,55.6,54.8,29.73,NW,315,2.8,4.2,97,0.00,CLR,,0.00,WeatherDisplay:10.37,2013-05-23 11:09:00,
2013-05-23 07:14:00,55.6,54.8,29.74,NNW,338,0.0,2.3,97,0.00,CLR,,0.00,WeatherDisplay:10.37,2013-05-23 11:14:00,
2013-05-23 07:19:00,55.4,54.6,29.74,NNW,338,2.0,2.7,97,0.00,CLR,,0.00,WeatherDisplay:10.37,2013-05-23 11:19:00,
2013-05-23 07:24:00,55.4,54.6,29.74,West,270,2.0,4.6,97,0.00,CLR,,0.00,WeatherDisplay:10.37,2013-05-23 11:24:00,
2013-05-23 07:29:00,55.2,54.4,29.74,WSW,248,1.1,3.2,97,0.00,CLR,,0.00,WeatherDisplay:10.37,2013-05-23 11:29:00,
2013-05-23 07:34:00,55.2,54.4,29.74,SW,225,1.5,3.5,97,0.00,CLR,,0.00,WeatherDisplay:10.37,2013-05-23 11:34:00,
2013-05-23 07:39:00,55.2,54.4,29.75,SW,225,3.1,3.7,97,0.00,CLR,,0.00,WeatherDisplay:10.37,2013-05-23 11:39:00,
2013-05-23 07:44:00,54.9,54.1,29.75,North,360,1.0,2.3,97,0.00,CLR,,0.00,WeatherDisplay:10.37,2013-05-23 11:44:00,
2013-05-23 07:49:00,54.5,53.7,29.75,NNW,338,3.2,4.6,97,0.00,CLR,,0.00,WeatherDisplay:10.37,2013-05-23 11:49:00,
2013-05-23 07:54:00,54.5,53.7,29.75,West,270,2.7,3.7,97,0.00,CLR,,0.00,WeatherDisplay:10.37,2013-05-23 11:54:00,
2013-05-23 08:00:00,54.5,53.7,29.75,NNW,338,2.5,3.5,97,0.00,CLR,,0.00,WeatherDisplay:10.37,2013-05-23 12:00:00,
2013-05-23 08:05:00,54.5,53.7,29.75,NNW,338,5.1,5.8,97,0.00,CLR,,0.00,WeatherDisplay:10.37,2013-05-23 12:05:00,
2013-05-23 08:10:00,54.5,53.7,29.75,WSW,248,1.3,4.6,97,0.00,CLR,,0.00,WeatherDisplay:10.37,2013-05-23 12:10:00,
2013-05-23 08:15:00,54.3,53.5,29.75,WNW,287,1.0,6.0,97,0.00,CLR,,0.00,WeatherDisplay:10.37,2013-05-23 12:15:00,
2013-05-23 08:20:00,54.3,53.5,29.75,WNW,296,2.0,6.0,97,0.00,CLR,,0.00,WeatherDisplay:10.37,2013-05-23 12:20:00,
2013-05-23 08:25:00,54.1,53.3,29.75,NNW,338,2.8,4.6,97,0.00,CLR,,0.00,WeatherDisplay:10.37,2013-05-23 12:25:00,
2013-05-23 08:30:00,53.8,53.0,29.76,West,280,6.0,6.0,97,0.00,CLR,,0.00,WeatherDisplay:10.37,2013-05-23 12:30:00,
2013-05-23 08:35:00,53.6,52.7,29.76,West,265,5.0,6.0,97,0.00,CLR,,0.00,WeatherDisplay:10.37,2013-05-23 12:35:00,
2013-05-23 08:40:00,53.1,52.3,29.77,SSW,202,2.2,4.6,97,0.00,CLR,,0.00,WeatherDisplay:10.37,2013-05-23 12:40:00,
2013-05-23 08:45:00,53.1,52.3,29.77,SSW,212,1.0,2.0,97,0.00,CLR,,0.00,WeatherDisplay:10.37,2013-05-23 12:45:00,
2013-05-23 08:50:00,53.1,52.3,29.77,SSW,202,1.0,2.0,97,0.00,CLR,,0.00,WeatherDisplay:10.37,2013-05-23 12:50:00,
2013-05-23 08:55:00,53.1,52.3,29.77,SSW,202,1.7,1.7,97,0.00,CLR,,0.00,WeatherDisplay:10.37,2013-05-23 12:55:00,
2013-05-23 09:00:00,53.1,52.3,29.77,SSW,202,1.0,2.0,97,0.00,CLR,,0.00,WeatherDisplay:10.37,2013-05-23 13:00:00,
2013-05-23 09:05:00,53.1,52.3,29.77,SSW,202,1.0,2.0,97,0.00,CLR,,0.00,WeatherDisplay:10.37,2013-05-23 13:05:00,
2013-05-23 09:10:00,53.1,52.3,29.77,SSW,202,1.7,1.7,97,0.00,CLR,,0.00,WeatherDisplay:10.37,2013-05-23 13:10:00,
2013-05-23 09:15:00,53.1,52.3,29.77,SSW,202,1.0,2.0,97,0.00,CLR,,0.00,WeatherDisplay:10.37,2013-05-23 13:15:00,
2013-05-23 09:20:00,53.1,52.3,29.77,SSW,202,1.0,2.0,97,0.00,CLR,,0.00,WeatherDisplay:10.37,2013-05-23 13:20:00,
2013-05-23 09:25:00,53.1,52.3,29.77,SSW,202,1.7,1.7,97,0.00,CLR,,0.00,WeatherDisplay:10.37,2013-05-23 13:25:00,
2013-05-23 09:30:00,53.1,52.3,29.77,SSW,202,1.0,2.0,97,0.00,CLR,,0.00,WeatherDisplay:10.37,2013-05-23 13:30:00,
2013-05-23 09:35:00,53.1,52.3,29.77,SSW,202,1.0,2.0,97,0.00,CLR,,0.00,WeatherDisplay:10.37,2013-05-23 13:35:00,
2013-05-23 09:40:00,53.1,52.3,29.77,SSW,202,1.7,1.7,97,0.00,CLR,,0.00,WeatherDisplay:10.37,2013-05-23 13:40:00,
2013-05-23 09:45:00,53.1,52.3,29.77,SSW,202,1.0,2.0,97,0.00,CLR,,0.00,WeatherDisplay:10.37,2013-05-23 13:45:00,
2013-05-23 09:50:00,53.1,52.3,29.77,SSW,202,1.0,2.0,97,0.00,CLR,,0.00,WeatherDisplay:10.37,2013-05-23 13:50:00,
2013-05-23 09:55:00,53.1,52.3,29.77,SSW,202,1.7,1.7,97,0.00,CLR,,0.00,WeatherDisplay:10.37,2013-05-23 13:55:00,
2013-05-23 10:00:00,53.1,52.3,29.77,SSW,202,1.0,2.0,97,0.00,CLR,,0.00,WeatherDisplay:10.37,2013-05-23 14:00:00,
2013-05-23 10:05:00,53.1,52.3,29.77,SSW,202,1.0,2.0,97,0.00,CLR,,0.00,WeatherDisplay:10.37,2013-05-23 14:05:00,
2013-05-23 10:10:00,53.1,52.3,29.77,SSW,202,1.7,1.7,97,0.00,CLR,,0.00,WeatherDisplay:10.37,2013-05-23 14:10:00,
2013-05-23 10:15:00,51.8,51.0,29.81,NNW,338,0.3,1.2,97,0.08,RA,,0.08,WeatherDisplay:10.37,2013-05-23 14:15:00,
2013-05-23 10:20:00,52.1,51.3,29.81,NW,326,1.0,3.0,97,0.00,RA,,0.10,WeatherDisplay:10.37,2013-05-23 14:20:00,
2013-05-23 10:25:00,52.2,51.4,29.81,NNW,338,2.0,4.0,97,0.00,RA,,0.12,WeatherDisplay:10.37,2013-05-23 14:25:00,
2013-05-23 10:30:00,52.3,51.5,29.81,NNW,338,3.0,4.0,97,0.01,RA,,0.13,WeatherDisplay:10.37,2013-05-23 14:30:00,
2013-05-23 10:35:00,52.7,51.9,29.81,NNW,338,0.0,4.0,97,0.00,RA,,0.13,WeatherDisplay:10.37,2013-05-23 14:35:00,
2013-05-23 10:40:00,53.1,52.3,29.81,WNW,299,2.0,5.0,97,0.00,RA,,0.14,WeatherDisplay:10.37,2013-05-23 14:40:00,
2013-05-23 10:45:00,53.2,52.4,29.81,West,280,1.0,3.0,97,0.00,RA,,0.15,WeatherDisplay:10.37,2013-05-23 14:45:00,
2013-05-23 10:50:00,53.2,52.4,29.82,West,272,2.0,4.0,97,0.00,RA,,0.16,WeatherDisplay:10.37,2013-05-23 14:50:00,
2013-05-23 10:55:00,54.0,53.2,29.82,WNW,295,5.0,6.0,97,0.00,RA,,0.17,WeatherDisplay:10.37,2013-05-23 14:55:00,
2013-05-23 11:00:00,54.6,53.7,29.82,NNW,346,5.0,5.0,97,0.00,RA,,0.18,WeatherDisplay:10.37,2013-05-23 15:00:00,
2013-05-23 11:05:00,55.0,54.2,29.82,North,359,5.0,6.0,97,0.00,RA,,0.19,WeatherDisplay:10.37,2013-05-23 15:05:00,
2013-05-23 11:10:00,55.0,54.2,29.82,NNE,22,7.0,11.0,97,0.00,RA,,0.19,WeatherDisplay:10.37,2013-05-23 15:10:00,
2013-05-23 11:15:00,55.0,54.2,29.83,NE,37,6.0,9.0,97,0.00,RA,,0.20,WeatherDisplay:10.37,2013-05-23 15:15:00,
2013-05-23 11:20:00,53.8,53.0,29.83,ENE,66,9.0,12.0,97,0.00,RA,,0.21,WeatherDisplay:10.37,2013-05-23 15:20:00,
2013-05-23 11:25:00,52.3,51.5,29.84,NE,35,10.0,14.0,97,0.00,RA,,0.21,WeatherDisplay:10.37,2013-05-23 15:25:00,
2013-05-23 11:30:00,52.0,51.2,29.85,NNE,26,10.0,15.0,97,0.00,CLR,,0.21,WeatherDisplay:10.37,2013-05-23 15:30:00,
2013-05-23 11:35:00,52.0,51.2,29.85,NNE,28,8.0,14.0,97,0.00,CLR,,0.21,WeatherDisplay:10.37,2013-05-23 15:35:00,
2013-05-23 11:40:00,52.2,51.4,29.85,NE,34,5.0,9.0,97,0.00,CLR,,0.21,WeatherDisplay:10.37,2013-05-23 15:40:00,
2013-05-23 11:45:00,52.5,51.7,29.85,NNE,21,3.0,9.0,97,0.00,CLR,,0.21,WeatherDisplay:10.37,2013-05-23 15:45:00,
2013-05-23 11:50:00,52.2,51.4,29.86,NNE,13,7.0,13.0,97,0.00,RA,,0.22,WeatherDisplay:10.37,2013-05-23 15:50:00,
2013-05-23 11:55:00,51.8,51.0,29.86,North,7,7.0,10.0,97,0.00,RA,,0.22,WeatherDisplay:10.37,2013-05-23 15:55:00,
2013-05-23 12:00:00,52.0,51.2,29.86,NNE,14,6.0,13.0,97,0.00,RA,,0.23,WeatherDisplay:10.37,2013-05-23 16:00:00,
2013-05-23 12:05:00,52.2,51.4,29.88,NNE,13,8.0,11.0,97,0.00,RA,,0.23,WeatherDisplay:10.37,2013-05-23 16:05:00,
2013-05-23 12:10:00,52.2,51.1,29.88,NNE,16,7.0,11.0,96,0.00,CLR,,0.23,WeatherDisplay:10.37,2013-05-23 16:10:00,
2013-05-23 12:15:00,52.0,51.2,29.89,NNE,20,6.0,11.0,97,0.00,CLR,,0.23,WeatherDisplay:10.37,2013-05-23 16:15:00,
2013-05-23 12:20:00,51.8,51.0,29.89,NE,35,7.0,10.0,97,0.00,CLR,,0.23,WeatherDisplay:10.37,2013-05-23 16:20:00,
2013-05-23 12:25:00,52.2,51.4,29.90,NNE,28,6.0,8.0,97,0.00,CLR,,0.23,WeatherDisplay:10.37,2013-05-23 16:25:00,
2013-05-23 12:30:00,51.6,50.8,29.90,North,353,6.0,11.0,97,0.00,CLR,,0.23,WeatherDisplay:10.37,2013-05-23 16:30:00,
2013-05-23 12:35:00,51.1,50.0,29.90,North,353,10.0,13.0,96,0.00,CLR,,0.23,WeatherDisplay:10.37,2013-05-23 16:35:00,
2013-05-23 12:40:00,51.0,50.2,29.91,North,357,8.0,12.0,97,0.00,CLR,,0.23,WeatherDisplay:10.37,2013-05-23 16:40:00,
2013-05-23 12:45:00,50.4,49.6,29.91,NE,45,8.4,10.9,97,0.02,CLR,,0.23,WeatherDisplay:10.37,2013-05-23 16:45:00,
2013-05-23 12:50:00,50.5,49.7,29.92,North,9,6.0,12.0,97,0.00,CLR,,0.23,WeatherDisplay:10.37,2013-05-23 16:50:00,
2013-05-23 12:55:00,50.4,49.6,29.92,North,3,9.0,13.0,97,0.00,CLR,,0.23,WeatherDisplay:10.37,2013-05-23 16:55:00,
2013-05-23 13:00:00,50.5,49.7,29.92,NNE,15,8.0,10.0,97,0.00,CLR,,0.23,WeatherDisplay:10.37,2013-05-23 17:00:00,
2013-05-23 13:05:00,50.4,49.6,29.92,NE,34,5.0,11.0,97,0.00,CLR,,0.23,WeatherDisplay:10.37,2013-05-23 17:05:00,
2013-05-23 13:10:00,50.4,49.6,29.92,NNE,33,6.0,12.0,97,0.00,CLR,,0.23,WeatherDisplay:10.37,2013-05-23 17:10:00,
2013-05-23 13:15:00,50.4,49.6,29.92,ENE,68,9.0,10.4,97,0.00,CLR,,0.23,WeatherDisplay:10.37,2013-05-23 17:15:00,
2013-05-23 13:20:00,50.4,49.6,29.92,NE,48,5.0,10.0,97,0.00,RA,,0.24,WeatherDisplay:10.37,2013-05-23 17:20:00,
2013-05-23 13:25:00,50.5,49.7,29.92,ENE,57,7.0,9.0,97,0.00,RA,,0.24,WeatherDisplay:10.37,2013-05-23 17:25:00,
2013-05-23 13:30:00,50.8,50.0,29.92,NE,49,7.0,9.0,97,0.00,,,0.24,WeatherDisplay:10.37,2013-05-23 17:30:00,
2013-05-23 13:35:00,51.0,50.1,29.92,NE,49,5.0,9.0,97,0.00,RA,,0.25,WeatherDisplay:10.37,2013-05-23 17:35:00,
2013-05-23 13:40:00,50.9,50.1,29.93,NE,41,6.0,8.0,97,0.00,RA,,0.25,WeatherDisplay:10.37,2013-05-23 17:40:00,
2013-05-23 13:45:00,51.3,50.5,29.93,NNE,23,5.0,8.0,97,0.01,RA,,0.26,WeatherDisplay:10.37,2013-05-23 17:45:00,
2013-05-23 13:50:00,50.9,50.1,29.94,NE,45,6.0,8.0,97,0.00,RA,,0.26,WeatherDisplay:10.37,2013-05-23 17:50:00,
2013-05-23 13:55:00,50.7,49.9,29.94,NE,36,5.0,6.0,97,0.00,RA,,0.27,WeatherDisplay:10.37,2013-05-23 17:55:00,
2013-05-23 14:00:00,50.9,50.1,29.94,NNE,25,7.0,8.0,97,0.00,RA,,0.28,WeatherDisplay:10.37,2013-05-23 18:00:00,
2013-05-23 14:05:00,51.3,50.2,29.94,NE,51,7.0,8.0,96,0.00,RA,,0.28,WeatherDisplay:10.37,2013-05-23 18:05:00,
2013-05-23 14:10:00,51.1,50.0,29.94,ENE,58,9.0,12.0,96,0.00,,,0.28,WeatherDisplay:10.37,2013-05-23 18:10:00,
2013-05-23 14:15:00,51.6,50.2,29.94,ENE,68,3.2,5.8,95,0.05,CLR,,0.28,WeatherDisplay:10.37,2013-05-23 18:15:00,
2013-05-23 14:20:00,52.0,50.9,29.94,NNE,32,5.0,8.0,96,0.00,CLR,,0.28,WeatherDisplay:10.37,2013-05-23 18:20:00,
2013-05-23 14:25:00,51.9,50.6,29.94,NE,42,6.0,8.0,95,0.00,CLR,,0.28,WeatherDisplay:10.37,2013-05-23 18:25:00,
2013-05-23 14:30:00,52.3,50.9,29.95,North,360,3.6,8.1,95,0.04,CLR,,0.28,WeatherDisplay:10.37,2013-05-23 18:30:00,
2013-05-23 14:35:00,51.6,49.9,29.95,NNE,32,6.0,8.0,94,0.00,CLR,,0.28,WeatherDisplay:10.37,2013-05-23 18:35:00,
2013-05-23 14:40:00,51.3,49.9,29.96,NNE,24,6.0,12.0,95,0.00,CLR,,0.28,WeatherDisplay:10.37,2013-05-23 18:40:00,
2013-05-23 14:45:00,51.8,50.4,29.96,NNE,22,5.0,5.8,95,0.03,CLR,,0.28,WeatherDisplay:10.37,2013-05-23 18:45:00,
2013-05-23 14:50:00,51.9,50.2,29.95,NNE,19,5.0,12.0,94,0.00,CLR,,0.28,WeatherDisplay:10.37,2013-05-23 18:50:00,
2013-05-23 14:55:00,52.0,50.3,29.95,NNE,17,6.0,8.0,94,0.00,CLR,,0.28,WeatherDisplay:10.37,2013-05-23 18:55:00,
2013-05-23 15:00:00,51.8,49.5,29.96,NNE,22,7.6,10.4,92,0.00,CLR,,0.28,WeatherDisplay:10.37,2013-05-23 19:00:00,
2013-05-23 15:05:00,52.0,50.0,29.96,NE,39,9.0,16.0,93,0.00,CLR,,0.28,WeatherDisplay:10.37,2013-05-23 19:05:00,
2013-05-23 15:10:00,52.0,50.0,29.96,NNE,28,9.0,15.0,93,0.00,CLR,,0.28,WeatherDisplay:10.37,2013-05-23 19:10:00,
2013-05-23 15:15:00,52.2,50.2,29.97,NE,45,7.0,8.1,93,0.00,CLR,,0.28,WeatherDisplay:10.37,2013-05-23 19:15:00,
2013-05-23 15:20:00,52.2,50.2,29.97,NNE,16,8.0,11.0,93,0.00,CLR,,0.28,WeatherDisplay:10.37,2013-05-23 19:20:00,
2013-05-23 15:25:00,51.6,49.9,29.97,NNE,29,8.0,10.0,94,0.00,CLR,,0.28,WeatherDisplay:10.37,2013-05-23 19:25:00,
2013-05-23 15:30:00,51.4,49.7,29.97,NNE,22,8.8,9.2,94,0.00,CLR,,0.28,WeatherDisplay:10.37,2013-05-23 19:30:00,
2013-05-23 15:35:00,51.4,49.7,29.97,NNE,28,5.0,12.0,94,0.00,CLR,,0.28,WeatherDisplay:10.37,2013-05-23 19:35:00,
2013-05-23 15:40:00,51.8,49.5,29.98,NNE,28,6.0,9.0,92,0.00,CLR,,0.28,WeatherDisplay:10.37,2013-05-23 19:40:00,
2013-05-23 15:45:00,51.6,49.1,29.98,NE,45,7.2,11.5,91,0.00,CLR,,0.28,WeatherDisplay:10.37,2013-05-23 19:45:00,
2013-05-23 15:50:00,51.4,49.2,29.99,NNE,33,7.0,9.0,92,0.00,CLR,,0.28,WeatherDisplay:10.37,2013-05-23 19:50:00,
2013-05-23 15:55:00,51.8,49.8,29.99,NE,54,2.0,9.0,93,0.00,CLR,,0.28,WeatherDisplay:10.37,2013-05-23 19:55:00,
2013-05-23 16:00:00,51.8,49.5,29.99,ENE,68,5.8,9.2,92,0.00,CLR,,0.28,WeatherDisplay:10.37,2013-05-23 20:00:00,
2013-05-23 16:05:00,52.3,49.7,29.99,NE,45,5.0,12.0,91,0.00,CLR,,0.28,WeatherDisplay:10.37,2013-05-23 20:05:00,
2013-05-23 16:10:00,52.9,50.0,29.99,NNE,29,6.0,6.0,90,0.00,CLR,,0.28,WeatherDisplay:10.37,2013-05-23 20:10:00,
2013-05-23 16:15:00,52.9,50.3,29.99,ENE,68,5.2,5.8,91,0.00,CLR,,0.28,WeatherDisplay:10.37,2013-05-23 20:15:00,
2013-05-23 16:20:00,52.5,50.2,29.99,NE,34,6.0,7.0,92,0.00,CLR,,0.28,WeatherDisplay:10.37,2013-05-23 20:20:00,
2013-05-23 16:25:00,52.3,50.0,29.99,North,0,6.0,10.0,92,0.00,CLR,,0.28,WeatherDisplay:10.37,2013-05-23 20:25:00,
2013-05-23 16:30:00,52.5,49.9,29.99,NNE,22,4.9,8.1,91,0.00,CLR,,0.28,WeatherDisplay:10.37,2013-05-23 20:30:00,
2013-05-23 16:35:00,53.0,50.4,29.99,North,358,3.0,7.0,91,0.00,CLR,,0.28,WeatherDisplay:10.37,2013-05-23 20:35:00,
2013-05-23 16:40:00,53.4,50.5,30.00,NNE,19,6.0,8.0,90,0.00,CLR,,0.28,WeatherDisplay:10.37,2013-05-23 20:40:00,
2013-05-23 16:45:00,53.6,50.4,30.00,ESE,112,6.8,12.7,89,0.00,CLR,,0.28,WeatherDisplay:10.37,2013-05-23 20:45:00,
2013-05-23 16:50:00,53.5,50.3,29.99,NE,48,5.0,8.0,89,0.00,CLR,,0.28,WeatherDisplay:10.37,2013-05-23 20:50:00,
2013-05-23 16:55:00,53.8,50.9,29.99,NNE,29,3.0,6.0,90,0.00,CLR,,0.28,WeatherDisplay:10.37,2013-05-23 20:55:00,
2013-05-23 17:00:00,53.1,50.2,29.99,NW,315,7.6,12.7,90,0.00,CLR,,0.28,WeatherDisplay:10.37,2013-05-23 21:00:00,
2013-05-23 17:05:00,53.1,50.2,30.01,NNE,15,5.0,8.0,90,0.00,CLR,,0.28,WeatherDisplay:10.37,2013-05-23 21:05:00,
2013-05-23 17:10:00,51.7,49.7,30.01,NNE,18,8.0,18.0,93,0.00,CLR,,0.28,WeatherDisplay:10.37,2013-05-23 21:10:00,
2013-05-23 17:15:00,51.4,49.2,30.01,NNE,22,5.3,6.9,92,0.00,CLR,,0.28,WeatherDisplay:10.37,2013-05-23 21:15:00,
2013-05-23 17:20:00,50.5,48.3,30.01,NNE,28,8.0,11.0,92,0.00,CLR,,0.28,WeatherDisplay:10.37,2013-05-23 21:20:00,
2013-05-23 17:25:00,50.5,47.7,30.02,NE,35,8.0,11.0,90,0.00,CLR,,0.28,WeatherDisplay:10.37,2013-05-23 21:25:00,
2013-05-23 17:30:00,50.5,47.7,30.03,North,360,5.6,9.2,90,0.00,CLR,,0.28,WeatherDisplay:10.37,2013-05-23 21:30:00,
2013-05-23 17:35:00,50.7,47.9,30.03,North,359,6.0,10.0,90,0.00,CLR,,0.28,WeatherDisplay:10.37,2013-05-23 21:35:00,
2013-05-23 17:40:00,50.9,48.1,30.03,North,1,5.0,8.0,90,0.00,CLR,,0.28,WeatherDisplay:10.37,2013-05-23 21:40:00,
2013-05-23 17:45:00,51.1,48.0,30.03,NNE,22,8.4,11.4,89,0.00,CLR,,0.28,WeatherDisplay:10.37,2013-05-23 21:45:00,
2013-05-23 17:50:00,50.7,47.9,30.04,NNW,336,6.0,12.0,90,0.00,CLR,,0.28,WeatherDisplay:10.37,2013-05-23 21:50:00,
2013-05-23 17:55:00,50.5,47.4,30.04,North,353,8.0,11.0,89,0.00,CLR,,0.28,WeatherDisplay:10.37,2013-05-23 21:55:00,
2013-05-23 18:00:00,50.4,47.3,30.04,NNE,22,8.8,10.4,89,0.00,CLR,,0.28,WeatherDisplay:10.37,2013-05-23 22:00:00,
2013-05-23 18:05:00,50.4,47.3,30.05,North,11,6.0,10.0,89,0.00,CLR,,0.28,WeatherDisplay:10.37,2013-05-23 22:05:00,
2013-05-23 18:10:00,50.4,47.6,30.05,NNW,344,6.0,9.0,90,0.00,CLR,,0.28,WeatherDisplay:10.37,2013-05-23 22:10:00,
2013-05-23 18:15:00,50.0,46.9,30.06,WNW,292,6.9,9.2,89,0.00,CLR,,0.28,WeatherDisplay:10.37,2013-05-23 22:15:00,
2013-05-23 18:20:00,50.1,47.0,30.06,NNW,332,6.0,10.0,89,0.00,CLR,,0.28,WeatherDisplay:10.37,2013-05-23 22:20:00,
2013-05-23 18:25:00,49.8,46.4,30.06,NNW,348,8.0,10.0,88,0.00,CLR,,0.28,WeatherDisplay:10.37,2013-05-23 22:25:00,
2013-05-23 18:30:00,49.8,46.7,30.06,NNE,22,4.0,8.1,89,0.00,CLR,,0.28,WeatherDisplay:10.37,2013-05-23 22:30:00,
2013-05-23 18:35:00,49.8,46.7,30.06,NNE,20,5.0,8.0,89,0.00,CLR,,0.28,WeatherDisplay:10.37,2013-05-23 22:35:00,
2013-05-23 18:40:00,50.2,47.4,30.07,North,354,2.0,6.0,90,0.00,CLR,,0.28,WeatherDisplay:10.37,2013-05-23 22:40:00,
2013-05-23 18:45:00,49.8,46.7,30.07,NNW,338,5.1,6.9,89,0.00,CLR,,0.28,WeatherDisplay:10.37,2013-05-23 22:45:00,
2013-05-23 18:50:00,49.8,47.0,30.07,NW,322,2.0,7.0,90,0.00,CLR,,0.28,WeatherDisplay:10.37,2013-05-23 22:50:00,
2013-05-23 18:55:00,49.8,47.0,30.07,NNW,332,3.0,6.0,90,0.00,CLR,,0.28,WeatherDisplay:10.37,2013-05-23 22:55:00,
2013-05-23 19:00:00,49.8,46.7,30.07,NW,315,3.5,5.8,89,0.00,CLR,,0.28,WeatherDisplay:10.37,2013-05-23 23:00:00,
2013-05-23 19:05:00,49.6,46.5,30.07,North,356,6.0,9.0,89,0.00,CLR,,0.28,WeatherDisplay:10.37,2013-05-23 23:05:00,
2013-05-23 19:10:00,49.5,46.1,30.07,North,349,5.0,9.0,88,0.00,CLR,,0.28,WeatherDisplay:10.37,2013-05-23 23:10:00,
2013-05-23 19:15:00,49.5,46.4,30.09,NNE,22,5.2,6.8,89,0.00,CLR,,0.28,WeatherDisplay:10.37,2013-05-23 23:15:00,
2013-05-23 19:20:00,49.5,46.4,30.09,NNW,344,5.0,6.0,89,0.00,CLR,,0.28,WeatherDisplay:10.37,2013-05-23 23:20:00,
2013-05-23 19:25:00,48.7,45.9,30.09,NW,322,7.0,7.0,90,0.00,CLR,,0.28,WeatherDisplay:10.37,2013-05-23 23:25:00,
2013-05-23 19:30:00,48.6,46.1,30.08,NNW,338,4.8,5.8,91,0.00,CLR,,0.28,WeatherDisplay:10.37,2013-05-23 23:30:00,
2013-05-23 19:35:00,48.6,46.1,30.08,NNW,346,3.0,7.0,91,0.00,CLR,,0.28,WeatherDisplay:10.37,2013-05-23 23:35:00,
2013-05-23 19:40:00,48.8,46.0,30.09,NW,324,1.0,7.0,90,0.00,CLR,,0.28,WeatherDisplay:10.37,2013-05-23 23:40:00,
2013-05-23 19:45:00,48.9,46.1,30.09,North,360,3.1,4.6,90,0.00,CLR,,0.28,WeatherDisplay:10.37,2013-05-23 23:45:00,
2013-05-23 19:50:00,49.2,46.4,30.10,WNW,301,3.0,5.0,90,0.00,CLR,,0.28,WeatherDisplay:10.37,2013-05-23 23:50:00,
2013-05-23 19:55:00,49.5,46.1,30.10,NNW,341,6.0,9.0,88,0.00,CLR,,0.28,WeatherDisplay:10.37,2013-05-23 23:55:00,
2013-05-23 20:00:00,49.1,46.0,30.10,NNW,338,3.1,4.6,89,0.00,CLR,,0.28,WeatherDisplay:10.37,2013-05-24 00:00:00,
2013-05-23 20:05:00,49.6,46.2,30.10,NNW,346,5.0,7.0,88,0.00,CLR,,0.28,WeatherDisplay:10.37,2013-05-24 00:05:00,
2013-05-23 20:10:00,49.1,45.7,30.10,NNW,343,5.0,6.0,88,0.00,CLR,,0.28,WeatherDisplay:10.37,2013-05-24 00:10:00,
2013-05-23 20:15:00,48.9,45.8,30.10,NNW,330,5.0,7.0,89,0.00,CLR,,0.28,WeatherDisplay:10.37,2013-05-24 00:15:00,
2013-05-23 20:20:00,48.7,45.3,30.10,NNW,329,6.0,7.0,88,0.00,CLR,,0.28,WeatherDisplay:10.37,2013-05-24 00:20:00,
2013-05-23 20:25:00,48.7,45.3,30.11,NNW,339,3.0,8.0,88,0.00,CLR,,0.28,WeatherDisplay:10.37,2013-05-24 00:25:00,
2013-05-23 20:30:00,48.7,45.3,30.11,NNW,338,3.0,7.0,88,0.00,CLR,,0.28,WeatherDisplay:10.37,2013-05-24 00:30:00,
2013-05-23 20:35:00,48.4,45.0,30.11,NNW,332,3.0,7.0,88,0.00,CLR,,0.28,WeatherDisplay:10.37,2013-05-24 00:35:00,
2013-05-23 20:40:00,48.4,45.3,30.11,NNW,345,3.0,6.0,89,0.00,CLR,,0.28,WeatherDisplay:10.37,2013-05-24 00:40:00,
2013-05-23 20:45:00,48.2,45.1,30.11,NNE,22,3.5,5.3,89,0.00,CLR,,0.28,WeatherDisplay:10.37,2013-05-24 00:45:00,
2013-05-23 20:50:00,48.2,44.8,30.12,North,351,5.0,6.0,88,0.00,CLR,,0.28,WeatherDisplay:10.37,2013-05-24 00:50:00,
2013-05-23 20:55:00,48.2,45.1,30.12,NNW,336,3.0,6.0,89,0.00,CLR,,0.28,WeatherDisplay:10.37,2013-05-24 00:55:00,
2013-05-23 21:00:00,48.2,45.1,30.12,WNW,288,2.0,7.0,89,0.00,CLR,,0.28,WeatherDisplay:10.37,2013-05-24 01:00:00,
2013-05-23 21:05:00,48.2,45.1,30.12,WNW,303,3.0,6.0,89,0.00,CLR,,0.28,WeatherDisplay:10.37,2013-05-24 01:05:00,
2013-05-23 21:10:00,48.0,44.9,30.12,NNW,333,3.0,5.0,89,0.00,CLR,,0.28,WeatherDisplay:10.37,2013-05-24 01:10:00,
2013-05-23 21:15:00,48.0,44.9,30.12,North,349,5.0,7.0,89,0.00,CLR,,0.28,WeatherDisplay:10.37,2013-05-24 01:15:00,
2013-05-23 21:20:00,48.0,44.6,30.12,North,360,5.4,6.9,88,0.00,CLR,,0.28,WeatherDisplay:10.37,2013-05-24 01:20:00,
2013-05-23 21:25:00,47.7,44.6,30.13,NNW,338,1.8,2.3,89,0.00,CLR,,0.28,WeatherDisplay:10.37,2013-05-24 01:25:00,
2013-05-23 21:30:00,47.5,44.4,30.13,WNW,292,4.0,5.8,89,0.00,CLR,,0.28,WeatherDisplay:10.37,2013-05-24 01:30:00,
2013-05-23 21:35:00,47.5,44.4,30.13,NNW,338,4.6,5.3,89,0.00,CLR,,0.28,WeatherDisplay:10.37,2013-05-24 01:35:00,
2013-05-23 21:40:00,47.5,44.4,30.14,NNW,338,1.8,3.5,89,0.00,CLR,,0.28,WeatherDisplay:10.37,2013-05-24 01:40:00,
2013-05-23 21:45:00,47.3,44.2,30.14,NNW,338,1.6,2.3,89,0.00,CLR,,0.28,WeatherDisplay:10.37,2013-05-24 01:45:00,
2013-05-23 21:50:00,47.1,44.3,30.14,NNW,338,1.9,2.3,90,0.00,CLR,,0.28,WeatherDisplay:10.37,2013-05-24 01:50:00,
2013-05-23 21:56:00,46.9,44.4,30.14,NNW,338,0.0,2.3,91,0.00,CLR,,0.28,WeatherDisplay:10.37,2013-05-24 01:56:00,
2013-05-23 22:01:00,46.8,44.3,30.15,NNW,338,2.6,3.5,91,0.00,CLR,,0.28,WeatherDisplay:10.37,2013-05-24 02:01:00,
2013-05-23 22:06:00,46.6,43.5,30.15,NNW,338,3.1,4.6,89,0.00,CLR,,0.28,WeatherDisplay:10.37,2013-05-24 02:06:00,
2013-05-23 22:11:00,46.4,43.3,30.15,North,360,1.8,5.8,89,0.00,CLR,,0.28,WeatherDisplay:10.37,2013-05-24 02:11:00,
2013-05-23 22:16:00,46.0,42.9,30.15,North,360,2.8,3.5,89,0.00,CLR,,0.28,WeatherDisplay:10.37,2013-05-24 02:16:00,
2013-05-23 22:21:00,45.9,42.8,30.15,North,360,2.8,3.5,89,0.00,CLR,,0.28,WeatherDisplay:10.37,2013-05-24 02:21:00,
2013-05-23 22:26:00,45.5,42.7,30.16,North,360,2.0,3.5,90,0.00,CLR,,0.28,WeatherDisplay:10.37,2013-05-24 02:26:00,
2013-05-23 22:31:00,45.0,42.8,30.16,North,360,0.8,3.2,92,0.00,CLR,,0.28,WeatherDisplay:10.37,2013-05-24 02:31:00,
2013-05-23 22:36:00,44.4,42.8,30.17,North,360,0.5,0.0,94,0.00,CLR,,0.28,WeatherDisplay:10.37,2013-05-24 02:36:00,
2013-05-23 22:41:00,44.4,42.8,30.17,North,360,1.8,2.7,94,0.00,CLR,,0.28,WeatherDisplay:10.37,2013-05-24 02:41:00,
2013-05-23 22:47:00,44.2,42.3,30.17,North,360,1.9,5.3,93,0.00,CLR,,0.28,WeatherDisplay:10.37,2013-05-24 02:47:00,
2013-05-23 22:52:00,44.1,41.9,30.17,North,360,1.7,2.2,92,0.00,CLR,,0.28,WeatherDisplay:10.37,2013-05-24 02:52:00,
2013-05-23 22:57:00,43.9,41.4,30.17,North,360,0.0,4.6,91,0.00,CLR,,0.28,WeatherDisplay:10.37,2013-05-24 02:57:00,
2013-05-23 23:02:00,43.7,41.2,30.18,North,360,1.8,2.7,91,0.00,CLR,,0.28,WeatherDisplay:10.37,2013-05-24 03:02:00,
2013-05-23 23:07:00,43.7,41.0,30.18,North,360,2.2,4.6,90,0.00,CLR,,0.28,WeatherDisplay:10.37,2013-05-24 03:07:00,
2013-05-23 23:12:00,43.7,40.7,30.18,North,360,0.3,1.2,89,0.00,CLR,,0.28,WeatherDisplay:10.37,2013-05-24 03:12:00,
2013-05-23 23:17:00,43.3,40.3,30.18,North,360,2.8,3.5,89,0.00,CLR,,0.28,WeatherDisplay:10.37,2013-05-24 03:17:00,
2013-05-23 23:22:00,43.2,39.9,30.18,North,360,3.4,4.6,88,0.00,CLR,,0.28,WeatherDisplay:10.37,2013-05-24 03:22:00,
2013-05-23 23:27:00,43.0,39.7,30.19,North,360,0.5,2.3,88,0.00,CLR,,0.28,WeatherDisplay:10.37,2013-05-24 03:27:00,
2013-05-23 23:32:00,43.2,39.3,30.19,North,360,4.2,6.8,86,0.00,CLR,,0.28,WeatherDisplay:10.37,2013-05-24 03:32:00,
2013-05-23 23:38:00,43.2,39.3,30.19,North,360,4.5,5.8,86,0.00,CLR,,0.28,WeatherDisplay:10.37,2013-05-24 03:38:00,
2013-05-23 23:43:00,43.2,39.0,30.19,North,360,3.3,5.8,85,0.00,CLR,,0.28,WeatherDisplay:10.37,2013-05-24 03:43:00,
2013-05-23 23:48:00,42.6,38.7,30.19,NW,315,2.1,5.8,86,0.00,CLR,,0.28,WeatherDisplay:10.37,2013-05-24 03:48:00,
2013-05-23 23:53:00,42.4,38.5,30.19,North,360,3.0,4.6,86,0.00,CLR,,0.28,WeatherDisplay:10.37,2013-05-24 03:53:00,
2013-05-23 23:58:00,42.4,38.5,30.19,NNW,338,5.0,6.9,86,0.00,CLR,,0.28,WeatherDisplay:10.37,2013-05-24 03:58:00,